createdAt,value
2024-04-30T00:01:26.939Z,8.91
2024-04-30T00:03:53.715Z,8.92
2024-04-30T00:06:20.399Z,8.97
2024-04-30T00:08:48.056Z,8.96
2024-04-30T00:11:14.740Z,8.95
2024-04-30T00:13:41.462Z,8.90
2024-04-30T00:16:08.108Z,8.90
2024-04-30T00:18:34.886Z,8.97
2024-04-30T00:21:01.686Z,9.05
2024-04-30T00:23:28.338Z,9.04
2024-04-30T00:25:54.929Z,9.00
2024-04-30T00:28:21.670Z,9.00
2024-04-30T00:30:48.438Z,9.02
2024-04-30T00:33:15.187Z,9.03
2024-04-30T00:35:41.789Z,9.00
2024-04-30T00:38:08.426Z,9.07
2024-04-30T00:40:35.083Z,9.07
2024-04-30T00:43:01.836Z,9.10
2024-04-30T00:45:28.482Z,9.06
2024-04-30T00:47:55.178Z,9.12
2024-04-30T00:50:22.766Z,9.14
2024-04-30T00:52:49.814Z,9.13
2024-04-30T00:55:16.557Z,9.13
2024-04-30T00:57:43.540Z,9.10
2024-04-30T01:00:10.817Z,9.12
2024-04-30T01:02:37.530Z,9.12
2024-04-30T01:05:04.710Z,9.09
2024-04-30T01:07:31.592Z,9.03
2024-04-30T01:09:58.506Z,8.98
2024-04-30T01:12:25.206Z,8.97
2024-04-30T01:14:51.848Z,8.98
2024-04-30T01:17:18.503Z,8.97
2024-04-30T01:19:45.127Z,8.95
2024-04-30T01:22:11.882Z,8.90
2024-04-30T01:24:38.497Z,8.87
2024-04-30T01:27:05.250Z,8.86
2024-04-30T01:29:31.935Z,8.85
2024-04-30T01:31:58.611Z,8.57
2024-04-30T01:34:25.283Z,8.32
2024-04-30T01:36:51.928Z,8.10
2024-04-30T01:39:18.548Z,7.84
2024-04-30T01:41:45.149Z,7.64
2024-04-30T01:44:11.823Z,7.49
2024-04-30T01:46:38.491Z,7.40
2024-04-30T01:49:05.173Z,7.33
2024-04-30T01:51:31.887Z,7.29
2024-04-30T01:53:58.503Z,7.25
2024-04-30T01:56:25.203Z,7.25
2024-04-30T01:58:51.858Z,7.27
2024-04-30T02:01:18.686Z,7.35
2024-04-30T02:03:45.565Z,7.46
2024-04-30T02:06:12.563Z,7.60
2024-04-30T02:08:39.171Z,7.64
2024-04-30T02:11:05.889Z,7.65
2024-04-30T02:13:32.688Z,7.69
2024-04-30T02:15:59.417Z,7.66
2024-04-30T02:18:26.219Z,7.66
2024-04-30T02:20:52.925Z,7.71
2024-04-30T02:23:19.588Z,7.68
2024-04-30T02:25:46.220Z,7.60
2024-04-30T02:28:12.939Z,7.59
2024-04-30T02:30:58.290Z,7.62
2024-04-30T02:33:43.705Z,7.62
2024-04-30T02:36:11.135Z,7.71
2024-04-30T02:38:37.800Z,7.64
2024-04-30T02:41:05.572Z,7.56
2024-04-30T02:43:32.256Z,7.47
2024-04-30T02:45:58.934Z,7.45
2024-04-30T02:48:26.763Z,7.52
2024-04-30T02:50:53.459Z,7.51
2024-04-30T02:53:20.139Z,7.57
2024-04-30T02:55:46.856Z,7.69
2024-04-30T02:58:13.599Z,7.62
2024-04-30T03:00:40.288Z,7.59
2024-04-30T03:03:06.937Z,7.54
2024-04-30T03:05:33.569Z,7.46
2024-04-30T03:08:00.183Z,7.36
2024-04-30T03:10:26.840Z,7.34
2024-04-30T03:12:53.689Z,7.36
2024-04-30T03:15:20.705Z,7.36
2024-04-30T03:17:48.084Z,7.34
2024-04-30T03:20:15.666Z,7.32
2024-04-30T03:22:42.380Z,7.25
2024-04-30T03:25:09.045Z,7.20
2024-04-30T03:27:35.702Z,7.09
2024-04-30T03:30:02.521Z,7.01
2024-04-30T03:32:29.185Z,7.04
2024-04-30T03:34:55.874Z,7.15
2024-04-30T03:37:22.498Z,7.17
2024-04-30T03:39:49.141Z,7.13
2024-04-30T03:42:15.796Z,7.11
2024-04-30T03:44:42.416Z,7.07
2024-04-30T03:47:09.665Z,7.03
2024-04-30T03:49:37.982Z,7.09
2024-04-30T03:52:05.874Z,7.63
2024-04-30T03:54:32.629Z,7.81
2024-04-30T03:56:59.239Z,8.05
2024-04-30T03:59:26.020Z,7.75
2024-04-30T04:01:52.725Z,7.87
2024-04-30T04:04:19.445Z,7.76
2024-04-30T04:06:46.173Z,7.48
2024-04-30T04:09:13.109Z,7.33
2024-04-30T04:11:58.399Z,7.05
2024-04-30T04:14:47.594Z,6.93
2024-04-30T04:17:15.499Z,6.94
2024-04-30T04:19:42.622Z,6.96
2024-04-30T04:22:09.566Z,6.95
2024-04-30T04:24:36.556Z,6.97
2024-04-30T04:27:04.641Z,6.95
2024-04-30T04:29:32.196Z,6.85
2024-04-30T04:32:00.696Z,7.51
2024-04-30T04:34:27.776Z,7.92
2024-04-30T04:36:54.466Z,7.77
2024-04-30T04:39:21.937Z,7.45
2024-04-30T04:41:48.544Z,7.27
2024-04-30T04:44:15.262Z,7.47
2024-04-30T04:46:41.966Z,7.92
2024-04-30T04:49:08.752Z,7.53
2024-04-30T04:51:35.453Z,7.26
2024-04-30T04:54:02.234Z,7.30
2024-04-30T04:56:28.893Z,7.29
2024-04-30T04:58:55.969Z,7.17
2024-04-30T05:01:22.842Z,6.95
2024-04-30T05:03:49.749Z,6.76
2024-04-30T05:06:16.440Z,6.63
2024-04-30T05:08:45.946Z,6.61
2024-04-30T05:11:13.751Z,6.59
2024-04-30T05:13:40.550Z,6.73
2024-04-30T05:16:09.323Z,7.20
2024-04-30T05:18:37.232Z,7.77
2024-04-30T05:21:05.016Z,7.75
2024-04-30T05:23:31.615Z,8.01
2024-04-30T05:25:58.310Z,8.47
2024-04-30T05:28:25.054Z,8.66
2024-04-30T05:30:51.701Z,8.87
2024-04-30T05:33:18.340Z,9.34
2024-04-30T05:35:45.024Z,10.00
2024-04-30T05:38:11.701Z,10.40
2024-04-30T05:40:38.386Z,10.59
2024-04-30T05:43:09.414Z,10.48
2024-04-30T05:45:36.072Z,10.31
2024-04-30T05:48:02.764Z,10.15
2024-04-30T05:50:29.480Z,11.25
2024-04-30T05:52:56.119Z,11.90
2024-04-30T05:55:23.139Z,11.85
2024-04-30T05:57:49.876Z,11.61
2024-04-30T06:00:16.674Z,11.11
2024-04-30T06:02:43.384Z,10.74
2024-04-30T06:05:10.540Z,10.53
2024-04-30T06:07:37.452Z,10.41
2024-04-30T06:10:04.549Z,10.32
2024-04-30T06:12:31.252Z,10.42
2024-04-30T06:14:57.928Z,10.31
2024-04-30T06:17:24.571Z,10.18
2024-04-30T06:19:51.278Z,10.17
2024-04-30T06:22:17.949Z,10.24
2024-04-30T06:24:44.540Z,10.26
2024-04-30T06:27:11.145Z,10.24
2024-04-30T06:29:38.996Z,10.29
2024-04-30T06:32:06.772Z,10.25
2024-04-30T06:34:33.839Z,10.25
2024-04-30T06:37:00.702Z,10.26
2024-04-30T06:39:27.357Z,10.25
2024-04-30T06:41:54.026Z,10.27
2024-04-30T06:44:21.677Z,10.28
2024-04-30T06:46:48.369Z,10.38
2024-04-30T06:49:15.073Z,10.50
2024-04-30T06:51:41.789Z,10.51
2024-04-30T06:54:08.533Z,10.57
2024-04-30T06:56:35.347Z,10.68
2024-04-30T06:59:01.951Z,10.77
2024-04-30T07:01:29.096Z,10.81
2024-04-30T07:03:55.869Z,10.90
2024-04-30T07:06:22.554Z,11.03
2024-04-30T07:08:49.208Z,11.12
2024-04-30T07:11:15.867Z,11.17
2024-04-30T07:13:42.584Z,11.25
2024-04-30T07:16:09.347Z,11.30
2024-04-30T07:18:36.513Z,11.38
2024-04-30T07:21:03.549Z,11.47
2024-04-30T07:23:30.839Z,11.63
2024-04-30T07:25:57.528Z,11.98
2024-04-30T07:28:25.264Z,12.38
2024-04-30T07:30:52.070Z,12.47
2024-04-30T07:33:18.827Z,12.53
2024-04-30T07:35:45.520Z,12.56
2024-04-30T07:38:12.133Z,12.45
2024-04-30T07:40:38.845Z,12.47
2024-04-30T07:43:05.624Z,12.39
2024-04-30T07:45:32.278Z,12.32
2024-04-30T07:47:59.082Z,12.26
2024-04-30T07:50:25.799Z,12.38
2024-04-30T07:52:52.519Z,12.31
2024-04-30T07:55:19.433Z,12.35
2024-04-30T07:57:46.124Z,12.24
2024-04-30T08:00:13.089Z,12.20
2024-04-30T08:02:39.832Z,12.18
2024-04-30T08:05:06.677Z,12.28
2024-04-30T08:07:33.377Z,12.38
2024-04-30T08:10:00.033Z,12.46
2024-04-30T08:12:26.728Z,12.51
2024-04-30T08:14:53.352Z,12.55
2024-04-30T08:17:20.136Z,12.58
2024-04-30T08:19:46.972Z,12.33
2024-04-30T08:22:13.692Z,12.27
2024-04-30T08:24:40.339Z,12.11
2024-04-30T08:27:06.987Z,12.02
2024-04-30T08:29:33.673Z,11.94
2024-04-30T08:32:00.728Z,11.95
2024-04-30T08:34:27.421Z,11.78
2024-04-30T08:36:54.093Z,11.77
2024-04-30T08:39:20.740Z,11.77
2024-04-30T08:41:49.314Z,11.85
2024-04-30T08:44:17.626Z,12.17
2024-04-30T08:46:46.700Z,12.38
2024-04-30T08:49:20.432Z,12.62
2024-04-30T08:51:57.129Z,12.81
2024-04-30T08:54:26.641Z,12.99
2024-04-30T08:56:53.695Z,12.97
2024-04-30T08:59:20.481Z,13.14
2024-04-30T09:01:52.404Z,13.16
2024-04-30T09:04:19.390Z,13.15
2024-04-30T09:06:46.293Z,13.09
2024-04-30T09:09:16.812Z,13.23
2024-04-30T09:11:44.294Z,13.40
2024-04-30T09:14:11.035Z,13.63
2024-04-30T09:16:48.465Z,13.68
2024-04-30T09:19:25.317Z,13.77
2024-04-30T09:22:05.346Z,13.78
2024-04-30T09:24:32.758Z,13.91
2024-04-30T09:26:59.525Z,13.72
2024-04-30T09:29:37.905Z,13.65
2024-04-30T09:32:05.667Z,13.66
2024-04-30T09:34:42.662Z,13.65
2024-04-30T09:37:19.212Z,13.61
2024-04-30T09:39:54.195Z,13.73
2024-04-30T09:42:21.761Z,13.75
2024-04-30T09:44:51.123Z,13.82
2024-04-30T09:47:20.217Z,13.82
2024-04-30T09:49:48.702Z,13.79
2024-04-30T09:52:19.152Z,13.70
2024-04-30T09:54:47.046Z,13.71
2024-04-30T09:57:14.741Z,13.71
2024-04-30T09:59:42.084Z,13.66
2024-04-30T10:02:12.254Z,13.99
2024-04-30T10:04:40.294Z,14.06
2024-04-30T10:07:07.732Z,14.07
2024-04-30T10:09:34.413Z,14.05
2024-04-30T10:12:01.050Z,14.12
2024-04-30T10:14:31.721Z,14.02
2024-04-30T10:17:02.452Z,13.98
2024-04-30T10:19:29.355Z,14.20
2024-04-30T10:21:56.102Z,14.46
2024-04-30T10:24:23.470Z,14.56
2024-04-30T10:26:51.375Z,14.37
2024-04-30T10:29:18.796Z,14.15
2024-04-30T10:31:49.268Z,14.07
2024-04-30T10:34:16.392Z,14.09
2024-04-30T10:36:47.963Z,14.10
2024-04-30T10:39:25.389Z,14.18
2024-04-30T10:41:52.227Z,14.37
2024-04-30T10:44:18.928Z,14.42
2024-04-30T10:46:45.653Z,14.45
2024-04-30T10:49:13.343Z,14.58
2024-04-30T10:51:40.025Z,14.70
2024-04-30T10:54:06.862Z,15.09
2024-04-30T10:56:33.520Z,15.35
2024-04-30T10:59:01.487Z,15.46
2024-04-30T11:01:31.759Z,15.70
2024-04-30T11:04:09.751Z,15.96
2024-04-30T11:06:43.358Z,16.24
2024-04-30T11:09:12.260Z,16.17
2024-04-30T11:11:48.869Z,16.19
2024-04-30T11:14:16.775Z,16.13
2024-04-30T11:16:44.184Z,16.33
2024-04-30T11:19:13.169Z,16.19
2024-04-30T11:21:40.236Z,16.28
2024-04-30T11:24:08.118Z,16.42
2024-04-30T11:26:34.765Z,16.61
2024-04-30T11:29:15.668Z,16.58
2024-04-30T11:31:48.083Z,16.73
2024-04-30T11:34:14.757Z,17.06
2024-04-30T11:36:41.514Z,16.99
2024-04-30T11:39:09.866Z,16.93
2024-04-30T11:41:39.537Z,17.02
2024-04-30T11:44:06.256Z,17.07
2024-04-30T11:46:32.979Z,17.09
2024-04-30T11:48:59.616Z,17.27
2024-04-30T11:51:26.292Z,17.35
2024-04-30T11:53:52.943Z,17.38
2024-04-30T11:56:19.636Z,17.41
2024-04-30T11:58:46.366Z,17.35
2024-04-30T12:01:13.126Z,17.36
2024-04-30T12:03:39.855Z,17.42
2024-04-30T12:06:06.624Z,17.38
2024-04-30T12:08:35.886Z,17.72
2024-04-30T12:11:02.569Z,17.95
2024-04-30T12:13:29.292Z,17.80
2024-04-30T12:15:56.485Z,17.91
2024-04-30T12:18:23.202Z,17.64
2024-04-30T12:20:49.919Z,17.34
2024-04-30T12:23:18.442Z,17.35
2024-04-30T12:25:45.153Z,17.87
2024-04-30T12:28:11.895Z,18.36
2024-04-30T12:30:38.520Z,18.19
2024-04-30T12:33:05.331Z,18.02
2024-04-30T12:35:33.659Z,18.04
2024-04-30T12:38:00.754Z,18.21
2024-04-30T12:40:27.513Z,18.16
2024-04-30T12:42:54.199Z,18.01
2024-04-30T12:45:20.808Z,18.19
2024-04-30T12:47:47.551Z,18.69
2024-04-30T12:50:15.256Z,18.85
2024-04-30T12:52:42.003Z,18.66
2024-04-30T12:55:08.645Z,18.91
2024-04-30T12:57:35.325Z,19.15
2024-04-30T13:00:01.979Z,18.95
2024-04-30T13:02:28.721Z,18.76
2024-04-30T13:04:55.713Z,18.66
2024-04-30T13:07:22.453Z,18.88
2024-04-30T13:09:49.142Z,19.01
2024-04-30T13:12:15.793Z,19.17
2024-04-30T13:14:42.418Z,19.44
2024-04-30T13:17:09.056Z,19.80
2024-04-30T13:19:36.150Z,19.97
2024-04-30T13:22:02.974Z,19.95
2024-04-30T13:24:29.582Z,19.68
2024-04-30T13:26:56.208Z,19.50
2024-04-30T13:29:22.974Z,19.67
2024-04-30T13:31:49.619Z,19.86
2024-04-30T13:34:29.740Z,20.06
2024-04-30T13:36:56.371Z,20.14
2024-04-30T13:39:27.050Z,20.13
2024-04-30T13:41:54.060Z,20.22
2024-04-30T13:44:20.677Z,20.46
2024-04-30T13:46:47.653Z,20.38
2024-04-30T13:49:14.455Z,20.14
2024-04-30T13:51:41.112Z,20.17
2024-04-30T13:54:09.461Z,19.99
2024-04-30T13:56:36.105Z,20.17
2024-04-30T13:59:06.454Z,20.23
2024-04-30T14:01:35.332Z,20.22
2024-04-30T14:04:02.231Z,20.24
2024-04-30T14:06:28.973Z,20.50
2024-04-30T14:08:55.595Z,20.80
2024-04-30T14:11:22.369Z,21.08
2024-04-30T14:13:49.076Z,21.06
2024-04-30T14:16:15.848Z,21.13
2024-04-30T14:18:42.575Z,21.11
2024-04-30T14:21:11.682Z,20.85
2024-04-30T14:23:38.316Z,21.03
2024-04-30T14:26:08.169Z,21.12
2024-04-30T14:28:35.767Z,20.89
2024-04-30T14:31:02.487Z,20.78
2024-04-30T14:33:29.213Z,20.68
2024-04-30T14:36:14.736Z,21.01
2024-04-30T14:38:41.427Z,21.13
2024-04-30T14:41:14.754Z,21.35
2024-04-30T14:43:41.879Z,21.08
2024-04-30T14:46:08.774Z,20.73
2024-04-30T14:48:35.497Z,20.78
2024-04-30T14:51:02.427Z,20.76
2024-04-30T14:53:29.074Z,20.95
2024-04-30T14:55:55.693Z,20.99
2024-04-30T14:58:22.628Z,21.18
2024-04-30T15:00:49.320Z,21.35
2024-04-30T15:03:18.765Z,21.57
2024-04-30T15:05:45.652Z,21.43
2024-04-30T15:08:12.409Z,21.36
2024-04-30T15:10:39.135Z,21.51
2024-04-30T15:13:06.484Z,21.57
2024-04-30T15:15:33.117Z,21.78
2024-04-30T15:17:59.825Z,21.71
2024-04-30T15:20:26.563Z,21.76
2024-04-30T15:22:53.257Z,21.53
2024-04-30T15:25:20.013Z,21.34
2024-04-30T15:27:46.839Z,21.03
2024-04-30T15:30:13.841Z,21.05
2024-04-30T15:32:42.774Z,21.00
2024-04-30T15:35:09.433Z,20.86
2024-04-30T15:37:36.307Z,21.00
2024-04-30T15:40:03.021Z,20.92
2024-04-30T15:42:29.677Z,20.90
2024-04-30T15:44:56.297Z,20.94
2024-04-30T15:47:22.970Z,20.88
2024-04-30T15:49:49.731Z,20.80
2024-04-30T15:52:16.416Z,20.93
2024-04-30T15:54:43.174Z,21.10
2024-04-30T15:57:11.838Z,21.28
2024-04-30T15:59:39.346Z,21.36
2024-04-30T16:02:06.048Z,21.33
2024-04-30T16:04:32.920Z,21.14
2024-04-30T16:06:59.698Z,20.92
2024-04-30T16:09:26.663Z,20.70
2024-04-30T16:11:53.593Z,20.60
2024-04-30T16:14:20.306Z,20.70
2024-04-30T16:16:48.122Z,20.42
2024-04-30T16:19:16.735Z,20.49
2024-04-30T16:21:44.095Z,20.61
2024-04-30T16:24:11.508Z,20.43
2024-04-30T16:26:41.306Z,20.39
2024-04-30T16:29:07.946Z,20.16
2024-04-30T16:31:34.604Z,20.01
2024-04-30T16:34:01.267Z,20.17
2024-04-30T16:36:28.117Z,20.26
2024-04-30T16:38:54.817Z,20.20
2024-04-30T16:41:21.624Z,20.15
2024-04-30T16:43:48.310Z,20.00
2024-04-30T16:46:15.222Z,20.06
2024-04-30T16:48:42.429Z,20.12
2024-04-30T16:51:13.629Z,20.29
2024-04-30T16:53:40.478Z,20.18
2024-04-30T16:56:07.461Z,20.03
2024-04-30T16:58:34.945Z,20.00
2024-04-30T17:01:01.655Z,19.94
2024-04-30T17:03:28.585Z,19.85
2024-04-30T17:05:55.380Z,19.73
2024-04-30T17:08:22.246Z,19.46
2024-04-30T17:10:48.870Z,19.33
2024-04-30T17:13:15.568Z,19.24
2024-04-30T17:15:42.200Z,19.08
2024-04-30T17:18:08.990Z,18.97
2024-04-30T17:20:35.746Z,18.83
2024-04-30T17:23:02.553Z,18.66
2024-04-30T17:25:29.240Z,18.53
2024-04-30T17:27:56.006Z,18.46
2024-04-30T17:30:22.751Z,18.40
2024-04-30T17:32:49.442Z,18.28
2024-04-30T17:35:16.144Z,18.19
2024-04-30T17:37:42.781Z,18.12
2024-04-30T17:40:10.185Z,18.03
2024-04-30T17:42:37.822Z,17.91
2024-04-30T17:45:04.937Z,17.82
2024-04-30T17:47:31.903Z,17.83
2024-04-30T17:49:58.660Z,17.78
2024-04-30T17:52:25.308Z,17.69
2024-04-30T17:54:52.025Z,17.65
2024-04-30T17:57:18.750Z,17.63
2024-04-30T17:59:45.431Z,17.64
2024-04-30T18:02:12.006Z,17.69
2024-04-30T18:04:38.727Z,17.74
2024-04-30T18:07:05.454Z,17.80
2024-04-30T18:09:32.144Z,17.80
2024-04-30T18:11:58.841Z,17.79
2024-04-30T18:14:25.543Z,17.72
2024-04-30T18:16:52.536Z,17.67
2024-04-30T18:19:19.251Z,17.63
2024-04-30T18:21:46.026Z,17.54
2024-04-30T18:24:12.744Z,17.42
2024-04-30T18:26:40.425Z,17.28
2024-04-30T18:29:07.056Z,17.10
2024-04-30T18:31:33.752Z,16.95
2024-04-30T18:34:00.881Z,16.79
2024-04-30T18:36:27.927Z,16.64
2024-04-30T18:38:54.949Z,16.46
2024-04-30T18:41:28.281Z,16.31
2024-04-30T18:43:58.003Z,16.18
2024-04-30T18:46:24.713Z,16.05
2024-04-30T18:48:52.041Z,15.88
2024-04-30T18:51:19.982Z,15.68
2024-04-30T18:53:46.654Z,15.57
2024-04-30T18:56:19.554Z,15.40
2024-04-30T18:58:47.072Z,15.28
2024-04-30T19:01:14.811Z,15.43
2024-04-30T19:03:41.965Z,15.48
2024-04-30T19:06:10.430Z,15.56
2024-04-30T19:08:37.310Z,15.46
2024-04-30T19:11:05.472Z,15.45
2024-04-30T19:13:32.923Z,15.40
2024-04-30T19:16:06.689Z,15.47
2024-04-30T19:18:33.926Z,15.57
2024-04-30T19:21:04.366Z,15.55
2024-04-30T19:23:32.530Z,15.55
2024-04-30T19:26:00.198Z,15.54
2024-04-30T19:28:27.505Z,15.55
2024-04-30T19:30:54.313Z,15.56
2024-04-30T19:33:21.293Z,15.57
2024-04-30T19:35:48.014Z,15.57
2024-04-30T19:38:15.758Z,15.51
2024-04-30T19:40:43.699Z,15.42
2024-04-30T19:43:13.069Z,15.33
2024-04-30T19:45:40.880Z,15.29
2024-04-30T19:48:08.908Z,15.21
2024-04-30T19:50:36.348Z,15.23
2024-04-30T19:53:02.923Z,15.12
2024-04-30T19:55:29.586Z,15.03
2024-04-30T19:57:56.218Z,14.95
2024-04-30T20:00:22.889Z,14.84
2024-04-30T20:02:51.471Z,14.72
2024-04-30T20:05:18.100Z,14.71
2024-04-30T20:07:44.723Z,14.66
2024-04-30T20:10:11.332Z,14.59
2024-04-30T20:12:37.978Z,14.74
2024-04-30T20:15:04.784Z,14.64
2024-04-30T20:17:31.421Z,14.61
2024-04-30T20:19:58.139Z,14.65
2024-04-30T20:22:25.268Z,14.74
2024-04-30T20:24:51.998Z,14.79
2024-04-30T20:27:18.821Z,14.90
2024-04-30T20:29:45.495Z,14.92
2024-04-30T20:32:13.178Z,14.89
2024-04-30T20:34:39.813Z,14.81
2024-04-30T20:37:06.573Z,14.90
2024-04-30T20:39:35.909Z,14.80
2024-04-30T20:42:02.648Z,14.67
2024-04-30T20:44:29.347Z,14.59
2024-04-30T20:46:55.977Z,14.41
2024-04-30T20:49:22.644Z,14.34
2024-04-30T20:51:49.361Z,14.23
2024-04-30T20:54:15.991Z,14.11
2024-04-30T20:56:42.937Z,14.08
2024-04-30T20:59:10.706Z,13.93
2024-04-30T21:01:37.589Z,13.81
2024-04-30T21:04:04.592Z,13.80
2024-04-30T21:06:31.480Z,13.91
2024-04-30T21:08:58.122Z,13.98
2024-04-30T21:11:24.901Z,14.28
2024-04-30T21:13:51.624Z,14.40
2024-04-30T21:16:18.299Z,14.34
2024-04-30T21:18:45.575Z,14.33
2024-04-30T21:21:12.302Z,14.36
2024-04-30T21:23:42.946Z,14.28
2024-04-30T21:26:10.245Z,14.23
2024-04-30T21:28:37.941Z,14.21
2024-04-30T21:31:05.029Z,14.22
2024-04-30T21:33:32.053Z,14.18
2024-04-30T21:35:59.369Z,14.18
2024-04-30T21:38:26.005Z,14.18
2024-04-30T21:40:53.196Z,14.27
2024-04-30T21:43:19.872Z,14.32
2024-04-30T21:45:46.543Z,14.23
2024-04-30T21:48:13.307Z,14.11
2024-04-30T21:50:40.051Z,14.04
2024-04-30T21:53:06.654Z,14.00
2024-04-30T21:55:33.243Z,13.93
2024-04-30T21:57:59.918Z,13.90
2024-04-30T22:00:26.645Z,13.92
2024-04-30T22:02:57.710Z,13.95
2024-04-30T22:05:29.153Z,13.85
2024-04-30T22:07:55.845Z,13.72
2024-04-30T22:10:24.078Z,13.59
2024-04-30T22:12:50.791Z,13.46
2024-04-30T22:15:19.119Z,13.46
2024-04-30T22:17:46.220Z,13.50
2024-04-30T22:20:13.130Z,13.55
2024-04-30T22:22:40.249Z,13.69
2024-04-30T22:25:08.149Z,13.78
2024-04-30T22:27:35.053Z,13.71
2024-04-30T22:30:09.150Z,13.67
2024-04-30T22:32:44.705Z,13.65
2024-04-30T22:35:11.680Z,13.60
2024-04-30T22:37:38.346Z,13.58
2024-04-30T22:40:05.711Z,13.55
2024-04-30T22:42:32.813Z,13.54
2024-04-30T22:44:59.882Z,13.56
2024-04-30T22:47:26.605Z,13.53
2024-04-30T22:49:53.310Z,13.53
2024-04-30T22:52:19.985Z,13.45
2024-04-30T22:54:50.639Z,13.40
2024-04-30T22:57:17.675Z,13.31
2024-04-30T22:59:44.312Z,13.31
2024-04-30T23:02:11.143Z,13.26
2024-04-30T23:04:37.982Z,13.30
2024-04-30T23:07:05.086Z,13.33
2024-04-30T23:09:31.903Z,13.34
2024-04-30T23:11:58.594Z,13.44
2024-04-30T23:14:25.202Z,13.42
2024-04-30T23:16:51.843Z,13.37
2024-04-30T23:19:18.634Z,13.28
2024-04-30T23:21:45.646Z,13.15
2024-04-30T23:24:12.427Z,13.03
2024-04-30T23:26:39.076Z,12.94
2024-04-30T23:29:05.707Z,13.02
2024-04-30T23:31:32.380Z,13.02
2024-04-30T23:33:59.154Z,13.01
2024-04-30T23:36:25.993Z,12.90
2024-04-30T23:38:52.673Z,12.90
2024-04-30T23:41:19.423Z,12.85
2024-04-30T23:43:46.036Z,12.88
2024-04-30T23:46:12.987Z,12.80
2024-04-30T23:48:39.691Z,12.74
2024-04-30T23:51:13.147Z,12.73
2024-04-30T23:53:43.837Z,12.68
2024-04-30T23:56:12.166Z,12.59
2024-04-30T23:58:39.137Z,12.48
